sensor_id;sensor_type;location;lat;lon;timestamp;P1;durP1;ratioP1;P2;durP2;ratioP2
55762;SDS011;42162;51.958;5.426;2023-09-18T00:01:16;15.80;;;14.13;;
55762;SDS011;42162;51.958;5.426;2023-09-18T00:03:46;20.50;;;15.20;;
55762;SDS011;42162;51.958;5.426;2023-09-18T00:06:14;14.27;;;12.85;;
55762;SDS011;42162;51.958;5.426;2023-09-18T00:08:41;12.93;;;11.27;;
55762;SDS011;42162;51.958;5.426;2023-09-18T00:11:09;16.38;;;12.57;;
55762;SDS011;42162;51.958;5.426;2023-09-18T00:13:37;14.52;;;13.02;;
55762;SDS011;42162;51.958;5.426;2023-09-18T00:16:04;13.57;;;12.13;;
55762;SDS011;42162;51.958;5.426;2023-09-18T00:18:31;17.05;;;12.80;;
55762;SDS011;42162;51.958;5.426;2023-09-18T00:20:59;14.68;;;12.88;;
55762;SDS011;42162;51.958;5.426;2023-09-18T00:23:26;14.90;;;12.98;;
55762;SDS011;42162;51.958;5.426;2023-09-18T00:25:53;18.17;;;13.55;;
55762;SDS011;42162;51.958;5.426;2023-09-18T00:28:20;21.45;;;14.77;;
55762;SDS011;42162;51.958;5.426;2023-09-18T00:30:49;17.55;;;15.70;;
55762;SDS011;42162;51.958;5.426;2023-09-18T00:33:17;15.35;;;13.68;;
55762;SDS011;42162;51.958;5.426;2023-09-18T00:35:47;14.07;;;12.52;;
55762;SDS011;42162;51.958;5.426;2023-09-18T00:38:15;18.42;;;14.38;;
55762;SDS011;42162;51.958;5.426;2023-09-18T00:40:42;24.23;;;16.30;;
55762;SDS011;42162;51.958;5.426;2023-09-18T00:43:09;16.98;;;14.23;;
55762;SDS011;42162;51.958;5.426;2023-09-18T00:45:41;16.48;;;13.07;;
55762;SDS011;42162;51.958;5.426;2023-09-18T00:48:11;16.63;;;13.20;;
55762;SDS011;42162;51.958;5.426;2023-09-18T00:50:38;16.70;;;13.63;;
55762;SDS011;42162;51.958;5.426;2023-09-18T00:53:09;15.93;;;14.25;;
55762;SDS011;42162;51.958;5.426;2023-09-18T00:55:39;17.95;;;13.68;;
55762;SDS011;42162;51.958;5.426;2023-09-18T00:58:06;18.63;;;14.88;;
55762;SDS011;42162;51.958;5.426;2023-09-18T01:00:34;17.17;;;12.18;;
55762;SDS011;42162;51.958;5.426;2023-09-18T01:03:01;13.45;;;12.05;;
55762;SDS011;42162;51.958;5.426;2023-09-18T01:08:40;20.52;;;15.55;;
55762;SDS011;42162;51.958;5.426;2023-09-18T01:11:12;18.15;;;16.25;;
55762;SDS011;42162;51.958;5.426;2023-09-18T01:13:49;15.95;;;14.35;;
55762;SDS011;42162;51.958;5.426;2023-09-18T01:16:35;15.25;;;13.45;;
55762;SDS011;42162;51.958;5.426;2023-09-18T01:19:06;16.77;;;14.48;;
55762;SDS011;42162;51.958;5.426;2023-09-18T01:21:33;16.42;;;13.73;;
55762;SDS011;42162;51.958;5.426;2023-09-18T01:24:00;18.50;;;14.80;;
55762;SDS011;42162;51.958;5.426;2023-09-18T01:26:27;18.38;;;14.93;;
55762;SDS011;42162;51.958;5.426;2023-09-18T01:28:55;16.05;;;12.95;;
55762;SDS011;42162;51.958;5.426;2023-09-18T01:31:23;18.33;;;13.95;;
55762;SDS011;42162;51.958;5.426;2023-09-18T01:33:50;19.38;;;14.38;;
55762;SDS011;42162;51.958;5.426;2023-09-18T01:36:18;15.07;;;13.45;;
55762;SDS011;42162;51.958;5.426;2023-09-18T01:38:46;18.52;;;13.27;;
55762;SDS011;42162;51.958;5.426;2023-09-18T01:41:16;19.50;;;14.32;;
55762;SDS011;42162;51.958;5.426;2023-09-18T01:43:43;15.45;;;13.02;;
55762;SDS011;42162;51.958;5.426;2023-09-18T01:46:10;19.25;;;14.45;;
55762;SDS011;42162;51.958;5.426;2023-09-18T01:48:37;18.55;;;14.52;;
55762;SDS011;42162;51.958;5.426;2023-09-18T01:51:13;16.63;;;14.05;;
55762;SDS011;42162;51.958;5.426;2023-09-18T01:53:41;17.98;;;14.73;;
55762;SDS011;42162;51.958;5.426;2023-09-18T01:56:08;17.45;;;15.43;;
55762;SDS011;42162;51.958;5.426;2023-09-18T01:58:35;19.60;;;14.75;;
55762;SDS011;42162;51.958;5.426;2023-09-18T02:01:02;17.08;;;14.05;;
55762;SDS011;42162;51.958;5.426;2023-09-18T02:03:31;18.33;;;15.10;;
55762;SDS011;42162;51.958;5.426;2023-09-18T02:06:18;16.17;;;13.93;;
55762;SDS011;42162;51.958;5.426;2023-09-18T02:08:45;20.42;;;14.15;;
55762;SDS011;42162;51.958;5.426;2023-09-18T02:11:12;16.38;;;14.48;;
55762;SDS011;42162;51.958;5.426;2023-09-18T02:13:39;17.27;;;14.50;;
55762;SDS011;42162;51.958;5.426;2023-09-18T02:16:06;18.48;;;15.20;;
55762;SDS011;42162;51.958;5.426;2023-09-18T02:18:34;18.38;;;14.55;;
55762;SDS011;42162;51.958;5.426;2023-09-18T02:21:01;19.33;;;14.57;;
55762;SDS011;42162;51.958;5.426;2023-09-18T02:23:28;18.55;;;14.23;;
55762;SDS011;42162;51.958;5.426;2023-09-18T02:25:55;21.08;;;14.82;;
55762;SDS011;42162;51.958;5.426;2023-09-18T02:28:24;19.98;;;13.35;;
55762;SDS011;42162;51.958;5.426;2023-09-18T02:30:51;13.27;;;11.95;;
55762;SDS011;42162;51.958;5.426;2023-09-18T02:33:18;19.55;;;13.82;;
55762;SDS011;42162;51.958;5.426;2023-09-18T02:35:45;16.80;;;13.57;;
55762;SDS011;42162;51.958;5.426;2023-09-18T02:38:12;16.70;;;13.25;;
55762;SDS011;42162;51.958;5.426;2023-09-18T02:40:40;19.70;;;13.15;;
55762;SDS011;42162;51.958;5.426;2023-09-18T02:43:07;16.52;;;12.38;;
55762;SDS011;42162;51.958;5.426;2023-09-18T02:45:34;14.85;;;12.50;;
55762;SDS011;42162;51.958;5.426;2023-09-18T02:48:01;12.88;;;11.32;;
55762;SDS011;42162;51.958;5.426;2023-09-18T02:50:28;13.05;;;11.27;;
55762;SDS011;42162;51.958;5.426;2023-09-18T02:52:55;14.73;;;10.57;;
55762;SDS011;42162;51.958;5.426;2023-09-18T02:55:22;13.30;;;10.98;;
55762;SDS011;42162;51.958;5.426;2023-09-18T02:57:49;12.82;;;11.07;;
55762;SDS011;42162;51.958;5.426;2023-09-18T03:00:16;12.18;;;10.75;;
55762;SDS011;42162;51.958;5.426;2023-09-18T03:02:58;13.25;;;9.45;;
55762;SDS011;42162;51.958;5.426;2023-09-18T03:05:26;10.95;;;9.23;;
55762;SDS011;42162;51.958;5.426;2023-09-18T03:07:53;14.55;;;10.15;;
55762;SDS011;42162;51.958;5.426;2023-09-18T03:10:20;11.05;;;9.90;;
55762;SDS011;42162;51.958;5.426;2023-09-18T03:12:47;14.88;;;10.30;;
55762;SDS011;42162;51.958;5.426;2023-09-18T03:15:15;14.88;;;9.10;;
55762;SDS011;42162;51.958;5.426;2023-09-18T03:17:42;19.02;;;11.60;;
55762;SDS011;42162;51.958;5.426;2023-09-18T03:20:09;12.38;;;10.57;;
55762;SDS011;42162;51.958;5.426;2023-09-18T03:22:37;12.57;;;10.60;;
55762;SDS011;42162;51.958;5.426;2023-09-18T03:25:04;14.25;;;10.55;;
55762;SDS011;42162;51.958;5.426;2023-09-18T03:27:32;13.85;;;10.20;;
55762;SDS011;42162;51.958;5.426;2023-09-18T03:29:59;10.70;;;8.52;;
55762;SDS011;42162;51.958;5.426;2023-09-18T03:32:26;15.55;;;10.13;;
55762;SDS011;42162;51.958;5.426;2023-09-18T03:34:53;12.65;;;10.60;;
55762;SDS011;42162;51.958;5.426;2023-09-18T03:37:21;14.88;;;10.32;;
55762;SDS011;42162;51.958;5.426;2023-09-18T03:39:48;11.55;;;10.40;;
55762;SDS011;42162;51.958;5.426;2023-09-18T03:42:15;17.02;;;10.00;;
55762;SDS011;42162;51.958;5.426;2023-09-18T03:44:43;13.13;;;9.10;;
55762;SDS011;42162;51.958;5.426;2023-09-18T03:47:10;14.27;;;10.10;;
55762;SDS011;42162;51.958;5.426;2023-09-18T03:49:37;12.95;;;10.02;;
55762;SDS011;42162;51.958;5.426;2023-09-18T03:52:04;13.52;;;9.30;;
55762;SDS011;42162;51.958;5.426;2023-09-18T03:54:31;11.15;;;9.02;;
55762;SDS011;42162;51.958;5.426;2023-09-18T03:56:58;11.90;;;9.48;;
55762;SDS011;42162;51.958;5.426;2023-09-18T03:59:25;9.80;;;8.50;;
55762;SDS011;42162;51.958;5.426;2023-09-18T04:01:52;12.20;;;8.20;;
55762;SDS011;42162;51.958;5.426;2023-09-18T04:04:19;14.88;;;8.70;;
55762;SDS011;42162;51.958;5.426;2023-09-18T04:06:46;13.82;;;8.18;;
55762;SDS011;42162;51.958;5.426;2023-09-18T04:09:16;11.18;;;7.90;;
55762;SDS011;42162;51.958;5.426;2023-09-18T04:11:45;9.35;;;7.95;;
55762;SDS011;42162;51.958;5.426;2023-09-18T04:14:13;9.52;;;7.32;;
55762;SDS011;42162;51.958;5.426;2023-09-18T04:16:41;11.00;;;6.95;;
55762;SDS011;42162;51.958;5.426;2023-09-18T04:19:09;10.20;;;7.03;;
55762;SDS011;42162;51.958;5.426;2023-09-18T04:21:36;9.63;;;7.90;;
55762;SDS011;42162;51.958;5.426;2023-09-18T04:24:04;7.80;;;6.47;;
55762;SDS011;42162;51.958;5.426;2023-09-18T04:26:32;9.73;;;7.68;;
55762;SDS011;42162;51.958;5.426;2023-09-18T04:29:00;9.65;;;6.28;;
55762;SDS011;42162;51.958;5.426;2023-09-18T04:31:29;13.85;;;7.65;;
55762;SDS011;42162;51.958;5.426;2023-09-18T04:33:58;11.05;;;8.60;;
55762;SDS011;42162;51.958;5.426;2023-09-18T04:36:25;13.43;;;8.52;;
55762;SDS011;42162;51.958;5.426;2023-09-18T04:38:52;16.00;;;9.32;;
55762;SDS011;42162;51.958;5.426;2023-09-18T04:41:20;13.68;;;9.27;;
55762;SDS011;42162;51.958;5.426;2023-09-18T04:43:48;14.30;;;9.52;;
55762;SDS011;42162;51.958;5.426;2023-09-18T04:46:23;21.75;;;10.80;;
55762;SDS011;42162;51.958;5.426;2023-09-18T04:48:51;19.73;;;10.25;;
55762;SDS011;42162;51.958;5.426;2023-09-18T04:51:19;48.97;;;13.05;;
55762;SDS011;42162;51.958;5.426;2023-09-18T04:53:46;17.92;;;10.35;;
55762;SDS011;42162;51.958;5.426;2023-09-18T04:56:13;13.63;;;9.07;;
55762;SDS011;42162;51.958;5.426;2023-09-18T04:58:40;23.38;;;11.27;;
55762;SDS011;42162;51.958;5.426;2023-09-18T05:01:07;18.13;;;9.55;;
55762;SDS011;42162;51.958;5.426;2023-09-18T05:03:37;14.98;;;8.65;;
55762;SDS011;42162;51.958;5.426;2023-09-18T05:06:08;20.37;;;9.60;;
55762;SDS011;42162;51.958;5.426;2023-09-18T05:08:36;14.93;;;9.32;;
55762;SDS011;42162;51.958;5.426;2023-09-18T05:11:03;9.23;;;7.82;;
55762;SDS011;42162;51.958;5.426;2023-09-18T05:13:31;12.10;;;8.27;;
55762;SDS011;42162;51.958;5.426;2023-09-18T05:15:58;16.00;;;7.72;;
55762;SDS011;42162;51.958;5.426;2023-09-18T05:18:25;9.38;;;7.20;;
55762;SDS011;42162;51.958;5.426;2023-09-18T05:20:52;9.80;;;6.78;;
55762;SDS011;42162;51.958;5.426;2023-09-18T05:23:20;11.93;;;6.80;;
55762;SDS011;42162;51.958;5.426;2023-09-18T05:25:47;8.95;;;7.20;;
55762;SDS011;42162;51.958;5.426;2023-09-18T05:28:14;13.13;;;7.65;;
55762;SDS011;42162;51.958;5.426;2023-09-18T05:30:42;10.65;;;7.20;;
55762;SDS011;42162;51.958;5.426;2023-09-18T05:33:09;10.77;;;7.40;;
55762;SDS011;42162;51.958;5.426;2023-09-18T05:35:40;12.30;;;7.70;;
55762;SDS011;42162;51.958;5.426;2023-09-18T05:38:12;10.82;;;7.53;;
55762;SDS011;42162;51.958;5.426;2023-09-18T05:40:41;7.53;;;6.67;;
55762;SDS011;42162;51.958;5.426;2023-09-18T05:43:08;10.25;;;7.30;;
55762;SDS011;42162;51.958;5.426;2023-09-18T05:45:37;9.23;;;7.47;;
55762;SDS011;42162;51.958;5.426;2023-09-18T05:48:06;9.73;;;6.60;;
55762;SDS011;42162;51.958;5.426;2023-09-18T05:50:34;10.45;;;6.88;;
55762;SDS011;42162;51.958;5.426;2023-09-18T05:53:05;10.33;;;6.70;;
55762;SDS011;42162;51.958;5.426;2023-09-18T05:55:33;18.40;;;7.90;;
55762;SDS011;42162;51.958;5.426;2023-09-18T05:58:01;7.97;;;7.18;;
55762;SDS011;42162;51.958;5.426;2023-09-18T06:00:30;13.15;;;7.32;;
55762;SDS011;42162;51.958;5.426;2023-09-18T06:02:57;10.05;;;6.47;;
55762;SDS011;42162;51.958;5.426;2023-09-18T06:05:25;12.57;;;6.00;;
55762;SDS011;42162;51.958;5.426;2023-09-18T06:07:53;11.02;;;6.80;;
55762;SDS011;42162;51.958;5.426;2023-09-18T06:10:20;9.85;;;5.97;;
55762;SDS011;42162;51.958;5.426;2023-09-18T06:12:47;7.43;;;6.10;;
55762;SDS011;42162;51.958;5.426;2023-09-18T06:15:15;15.68;;;6.93;;
55762;SDS011;42162;51.958;5.426;2023-09-18T06:17:42;9.77;;;7.22;;
55762;SDS011;42162;51.958;5.426;2023-09-18T06:20:11;11.98;;;7.60;;
55762;SDS011;42162;51.958;5.426;2023-09-18T06:22:43;12.48;;;7.13;;
55762;SDS011;42162;51.958;5.426;2023-09-18T06:25:10;11.88;;;8.05;;
55762;SDS011;42162;51.958;5.426;2023-09-18T06:27:37;12.35;;;7.95;;
55762;SDS011;42162;51.958;5.426;2023-09-18T06:30:05;12.18;;;8.55;;
55762;SDS011;42162;51.958;5.426;2023-09-18T06:32:33;11.48;;;8.10;;
55762;SDS011;42162;51.958;5.426;2023-09-18T06:35:01;11.77;;;7.75;;
55762;SDS011;42162;51.958;5.426;2023-09-18T06:37:29;17.60;;;7.57;;
55762;SDS011;42162;51.958;5.426;2023-09-18T06:39:56;8.57;;;7.13;;
55762;SDS011;42162;51.958;5.426;2023-09-18T06:42:24;6.97;;;6.05;;
55762;SDS011;42162;51.958;5.426;2023-09-18T06:44:57;8.80;;;5.93;;
55762;SDS011;42162;51.958;5.426;2023-09-18T06:47:25;11.45;;;6.47;;
55762;SDS011;42162;51.958;5.426;2023-09-18T06:49:52;10.80;;;6.38;;
55762;SDS011;42162;51.958;5.426;2023-09-18T06:52:19;9.23;;;5.50;;
55762;SDS011;42162;51.958;5.426;2023-09-18T06:54:46;6.85;;;4.88;;
55762;SDS011;42162;51.958;5.426;2023-09-18T06:57:13;8.07;;;6.20;;
55762;SDS011;42162;51.958;5.426;2023-09-18T06:59:40;8.48;;;5.30;;
55762;SDS011;42162;51.958;5.426;2023-09-18T07:02:07;10.05;;;5.40;;
55762;SDS011;42162;51.958;5.426;2023-09-18T07:04:34;6.53;;;5.10;;
55762;SDS011;42162;51.958;5.426;2023-09-18T07:07:01;8.43;;;5.68;;
55762;SDS011;42162;51.958;5.426;2023-09-18T07:09:29;6.97;;;5.00;;
55762;SDS011;42162;51.958;5.426;2023-09-18T07:11:56;5.55;;;4.32;;
55762;SDS011;42162;51.958;5.426;2023-09-18T07:14:23;8.73;;;4.90;;
55762;SDS011;42162;51.958;5.426;2023-09-18T07:16:50;6.50;;;5.07;;
55762;SDS011;42162;51.958;5.426;2023-09-18T07:19:17;12.80;;;6.22;;
55762;SDS011;42162;51.958;5.426;2023-09-18T07:21:44;8.88;;;4.40;;
55762;SDS011;42162;51.958;5.426;2023-09-18T07:24:11;7.38;;;4.53;;
55762;SDS011;42162;51.958;5.426;2023-09-18T07:26:44;6.97;;;4.78;;
55762;SDS011;42162;51.958;5.426;2023-09-18T07:29:14;7.50;;;4.80;;
55762;SDS011;42162;51.958;5.426;2023-09-18T07:31:42;8.25;;;4.72;;
55762;SDS011;42162;51.958;5.426;2023-09-18T07:34:10;6.53;;;4.60;;
55762;SDS011;42162;51.958;5.426;2023-09-18T07:36:40;7.80;;;4.15;;
55762;SDS011;42162;51.958;5.426;2023-09-18T07:39:07;14.35;;;4.22;;
55762;SDS011;42162;51.958;5.426;2023-09-18T07:41:34;6.38;;;4.45;;
55762;SDS011;42162;51.958;5.426;2023-09-18T07:44:01;5.28;;;3.50;;
55762;SDS011;42162;51.958;5.426;2023-09-18T07:46:28;6.88;;;3.80;;
55762;SDS011;42162;51.958;5.426;2023-09-18T07:48:55;5.88;;;3.47;;
55762;SDS011;42162;51.958;5.426;2023-09-18T07:51:23;6.50;;;3.83;;
55762;SDS011;42162;51.958;5.426;2023-09-18T07:53:50;6.22;;;3.35;;
55762;SDS011;42162;51.958;5.426;2023-09-18T07:56:17;5.47;;;3.33;;
55762;SDS011;42162;51.958;5.426;2023-09-18T07:58:45;5.03;;;3.80;;
55762;SDS011;42162;51.958;5.426;2023-09-18T08:01:13;7.05;;;3.25;;
55762;SDS011;42162;51.958;5.426;2023-09-18T08:03:43;5.25;;;3.25;;
55762;SDS011;42162;51.958;5.426;2023-09-18T08:06:10;4.47;;;2.90;;
55762;SDS011;42162;51.958;5.426;2023-09-18T08:08:38;4.97;;;3.35;;
55762;SDS011;42162;51.958;5.426;2023-09-18T08:11:07;6.13;;;2.83;;
55762;SDS011;42162;51.958;5.426;2023-09-18T08:13:38;5.78;;;2.75;;
55762;SDS011;42162;51.958;5.426;2023-09-18T08:16:05;5.82;;;3.05;;
55762;SDS011;42162;51.958;5.426;2023-09-18T08:18:33;4.50;;;2.70;;
55762;SDS011;42162;51.958;5.426;2023-09-18T08:21:02;3.80;;;2.65;;
55762;SDS011;42162;51.958;5.426;2023-09-18T08:23:29;4.70;;;3.20;;
55762;SDS011;42162;51.958;5.426;2023-09-18T08:25:56;4.57;;;2.72;;
55762;SDS011;42162;51.958;5.426;2023-09-18T08:28:24;8.85;;;2.60;;
55762;SDS011;42162;51.958;5.426;2023-09-18T08:30:51;6.45;;;2.30;;
55762;SDS011;42162;51.958;5.426;2023-09-18T08:33:18;7.03;;;2.83;;
55762;SDS011;42162;51.958;5.426;2023-09-18T08:35:47;4.18;;;2.30;;
55762;SDS011;42162;51.958;5.426;2023-09-18T08:38:16;3.35;;;2.22;;
55762;SDS011;42162;51.958;5.426;2023-09-18T08:40:43;4.57;;;2.03;;
55762;SDS011;42162;51.958;5.426;2023-09-18T08:43:12;4.82;;;2.10;;
55762;SDS011;42162;51.958;5.426;2023-09-18T08:45:54;5.45;;;2.30;;
55762;SDS011;42162;51.958;5.426;2023-09-18T08:48:28;4.82;;;1.80;;
55762;SDS011;42162;51.958;5.426;2023-09-18T08:51:03;5.75;;;1.90;;
55762;SDS011;42162;51.958;5.426;2023-09-18T08:53:32;4.97;;;1.60;;
55762;SDS011;42162;51.958;5.426;2023-09-18T08:56:01;3.88;;;1.40;;
55762;SDS011;42162;51.958;5.426;2023-09-18T08:58:31;2.00;;;1.27;;
55762;SDS011;42162;51.958;5.426;2023-09-18T09:01:04;3.33;;;1.73;;
55762;SDS011;42162;51.958;5.426;2023-09-18T09:03:33;5.72;;;1.60;;
55762;SDS011;42162;51.958;5.426;2023-09-18T09:06:01;4.95;;;1.80;;
55762;SDS011;42162;51.958;5.426;2023-09-18T09:08:28;6.35;;;2.10;;
55762;SDS011;42162;51.958;5.426;2023-09-18T09:10:56;3.95;;;1.50;;
55762;SDS011;42162;51.958;5.426;2023-09-18T09:13:26;3.60;;;1.63;;
55762;SDS011;42162;51.958;5.426;2023-09-18T09:16:07;3.65;;;1.63;;
55762;SDS011;42162;51.958;5.426;2023-09-18T09:18:46;3.65;;;1.80;;
55762;SDS011;42162;51.958;5.426;2023-09-18T09:21:15;6.80;;;1.52;;
55762;SDS011;42162;51.958;5.426;2023-09-18T09:23:52;2.97;;;1.33;;
55762;SDS011;42162;51.958;5.426;2023-09-18T09:26:21;4.55;;;1.50;;
55762;SDS011;42162;51.958;5.426;2023-09-18T09:28:52;8.68;;;1.83;;
55762;SDS011;42162;51.958;5.426;2023-09-18T09:31:26;5.40;;;1.30;;
55762;SDS011;42162;51.958;5.426;2023-09-18T09:33:54;2.20;;;1.08;;
55762;SDS011;42162;51.958;5.426;2023-09-18T09:36:23;3.17;;;1.30;;
55762;SDS011;42162;51.958;5.426;2023-09-18T09:38:57;2.75;;;1.02;;
55762;SDS011;42162;51.958;5.426;2023-09-18T09:41:26;4.18;;;1.38;;
55762;SDS011;42162;51.958;5.426;2023-09-18T09:43:57;5.40;;;1.50;;
55762;SDS011;42162;51.958;5.426;2023-09-18T09:46:24;3.28;;;1.67;;
55762;SDS011;42162;51.958;5.426;2023-09-18T09:49:03;3.70;;;1.55;;
55762;SDS011;42162;51.958;5.426;2023-09-18T09:51:32;3.83;;;1.48;;
55762;SDS011;42162;51.958;5.426;2023-09-18T09:54:01;6.20;;;1.50;;
55762;SDS011;42162;51.958;5.426;2023-09-18T09:59:07;4.40;;;1.40;;
55762;SDS011;42162;51.958;5.426;2023-09-18T10:01:35;4.68;;;1.30;;
55762;SDS011;42162;51.958;5.426;2023-09-18T10:04:05;4.43;;;1.25;;
55762;SDS011;42162;51.958;5.426;2023-09-18T10:06:36;4.93;;;1.45;;
55762;SDS011;42162;51.958;5.426;2023-09-18T10:09:04;3.60;;;1.35;;
55762;SDS011;42162;51.958;5.426;2023-09-18T10:11:34;4.72;;;1.45;;
55762;SDS011;42162;51.958;5.426;2023-09-18T10:14:20;2.90;;;1.27;;
55762;SDS011;42162;51.958;5.426;2023-09-18T10:16:53;5.97;;;2.60;;
55762;SDS011;42162;51.958;5.426;2023-09-18T10:19:27;5.95;;;2.72;;
55762;SDS011;42162;51.958;5.426;2023-09-18T10:22:01;4.25;;;2.58;;
55762;SDS011;42162;51.958;5.426;2023-09-18T10:24:40;7.22;;;2.83;;
55762;SDS011;42162;51.958;5.426;2023-09-18T10:27:10;4.72;;;2.75;;
55762;SDS011;42162;51.958;5.426;2023-09-18T10:29:41;5.78;;;3.50;;
55762;SDS011;42162;51.958;5.426;2023-09-18T10:32:08;5.10;;;4.15;;
55762;SDS011;42162;51.958;5.426;2023-09-18T10:34:35;6.40;;;3.67;;
55762;SDS011;42162;51.958;5.426;2023-09-18T10:37:03;7.20;;;4.50;;
55762;SDS011;42162;51.958;5.426;2023-09-18T10:39:37;8.90;;;4.53;;
55762;SDS011;42162;51.958;5.426;2023-09-18T10:42:08;7.95;;;4.57;;
55762;SDS011;42162;51.958;5.426;2023-09-18T10:44:37;7.38;;;5.20;;
55762;SDS011;42162;51.958;5.426;2023-09-18T10:47:07;7.43;;;5.65;;
55762;SDS011;42162;51.958;5.426;2023-09-18T10:49:37;6.28;;;5.20;;
55762;SDS011;42162;51.958;5.426;2023-09-18T10:52:04;8.50;;;5.13;;
55762;SDS011;42162;51.958;5.426;2023-09-18T10:54:32;6.80;;;5.32;;
55762;SDS011;42162;51.958;5.426;2023-09-18T10:56:59;6.50;;;5.05;;
55762;SDS011;42162;51.958;5.426;2023-09-18T10:59:28;7.53;;;5.00;;
55762;SDS011;42162;51.958;5.426;2023-09-18T11:02:03;10.98;;;5.22;;
55762;SDS011;42162;51.958;5.426;2023-09-18T11:04:33;6.65;;;4.85;;
55762;SDS011;42162;51.958;5.426;2023-09-18T11:07:01;6.47;;;4.53;;
55762;SDS011;42162;51.958;5.426;2023-09-18T11:09:30;8.15;;;4.65;;
55762;SDS011;42162;51.958;5.426;2023-09-18T11:17:28;6.43;;;3.92;;
55762;SDS011;42162;51.958;5.426;2023-09-18T11:22:36;5.20;;;2.80;;
55762;SDS011;42162;51.958;5.426;2023-09-18T11:28:01;5.68;;;2.58;;
55762;SDS011;42162;51.958;5.426;2023-09-18T11:30:29;5.72;;;2.55;;
55762;SDS011;42162;51.958;5.426;2023-09-18T11:32:56;4.18;;;2.33;;
55762;SDS011;42162;51.958;5.426;2023-09-18T11:35:24;9.23;;;2.80;;
55762;SDS011;42162;51.958;5.426;2023-09-18T11:38:02;10.90;;;3.00;;
55762;SDS011;42162;51.958;5.426;2023-09-18T11:40:32;7.47;;;2.05;;
55762;SDS011;42162;51.958;5.426;2023-09-18T11:45:58;8.52;;;2.60;;
55762;SDS011;42162;51.958;5.426;2023-09-18T11:48:27;7.93;;;2.67;;
55762;SDS011;42162;51.958;5.426;2023-09-18T11:50:57;5.43;;;2.60;;
55762;SDS011;42162;51.958;5.426;2023-09-18T11:53:26;5.45;;;2.40;;
55762;SDS011;42162;51.958;5.426;2023-09-18T11:55:54;4.45;;;2.40;;
55762;SDS011;42162;51.958;5.426;2023-09-18T11:58:22;5.25;;;2.42;;
55762;SDS011;42162;51.958;5.426;2023-09-18T12:00:50;6.47;;;2.63;;
55762;SDS011;42162;51.958;5.426;2023-09-18T12:03:19;6.22;;;2.38;;
55762;SDS011;42162;51.958;5.426;2023-09-18T12:05:55;6.13;;;2.55;;
55762;SDS011;42162;51.958;5.426;2023-09-18T12:08:25;3.70;;;2.33;;
55762;SDS011;42162;51.958;5.426;2023-09-18T12:10:57;6.35;;;2.70;;
55762;SDS011;42162;51.958;5.426;2023-09-18T12:13:25;5.82;;;2.30;;
55762;SDS011;42162;51.958;5.426;2023-09-18T12:15:56;7.63;;;3.10;;
55762;SDS011;42162;51.958;5.426;2023-09-18T12:20:56;4.10;;;2.80;;
55762;SDS011;42162;51.958;5.426;2023-09-18T12:23:26;8.40;;;2.65;;
55762;SDS011;42162;51.958;5.426;2023-09-18T12:25:58;4.90;;;2.40;;
55762;SDS011;42162;51.958;5.426;2023-09-18T12:28:27;5.43;;;2.63;;
55762;SDS011;42162;51.958;5.426;2023-09-18T12:30:55;5.72;;;2.58;;
55762;SDS011;42162;51.958;5.426;2023-09-18T12:33:23;7.18;;;3.00;;
55762;SDS011;42162;51.958;5.426;2023-09-18T12:35:51;4.07;;;2.17;;
55762;SDS011;42162;51.958;5.426;2023-09-18T12:38:19;8.40;;;2.85;;
55762;SDS011;42162;51.958;5.426;2023-09-18T12:40:51;4.25;;;2.33;;
55762;SDS011;42162;51.958;5.426;2023-09-18T12:43:19;4.50;;;2.10;;
55762;SDS011;42162;51.958;5.426;2023-09-18T12:45:49;8.52;;;2.97;;
55762;SDS011;42162;51.958;5.426;2023-09-18T12:48:16;9.77;;;2.58;;
55762;SDS011;42162;51.958;5.426;2023-09-18T12:50:44;9.43;;;2.65;;
55762;SDS011;42162;51.958;5.426;2023-09-18T12:53:12;5.05;;;2.50;;
55762;SDS011;42162;51.958;5.426;2023-09-18T12:55:40;4.68;;;2.65;;
55762;SDS011;42162;51.958;5.426;2023-09-18T12:58:12;3.63;;;2.25;;
55762;SDS011;42162;51.958;5.426;2023-09-18T13:00:50;10.45;;;2.97;;
55762;SDS011;42162;51.958;5.426;2023-09-18T13:03:17;8.48;;;2.40;;
55762;SDS011;42162;51.958;5.426;2023-09-18T13:05:45;5.78;;;2.10;;
55762;SDS011;42162;51.958;5.426;2023-09-18T13:08:13;8.18;;;2.28;;
55762;SDS011;42162;51.958;5.426;2023-09-18T13:13:20;4.78;;;2.25;;
55762;SDS011;42162;51.958;5.426;2023-09-18T13:15:49;3.78;;;1.77;;
55762;SDS011;42162;51.958;5.426;2023-09-18T13:18:21;6.18;;;2.10;;
55762;SDS011;42162;51.958;5.426;2023-09-18T13:20:51;4.32;;;1.60;;
55762;SDS011;42162;51.958;5.426;2023-09-18T13:23:19;6.30;;;1.80;;
55762;SDS011;42162;51.958;5.426;2023-09-18T13:25:48;5.20;;;1.77;;
55762;SDS011;42162;51.958;5.426;2023-09-18T13:28:15;2.50;;;1.70;;
55762;SDS011;42162;51.958;5.426;2023-09-18T13:30:44;5.20;;;1.70;;
55762;SDS011;42162;51.958;5.426;2023-09-18T13:33:15;4.95;;;1.70;;
55762;SDS011;42162;51.958;5.426;2023-09-18T13:35:44;3.28;;;1.75;;
55762;SDS011;42162;51.958;5.426;2023-09-18T13:38:12;4.38;;;1.90;;
55762;SDS011;42162;51.958;5.426;2023-09-18T13:40:41;6.03;;;1.50;;
55762;SDS011;42162;51.958;5.426;2023-09-18T13:43:09;4.65;;;1.63;;
55762;SDS011;42162;51.958;5.426;2023-09-18T13:45:36;4.60;;;1.60;;
55762;SDS011;42162;51.958;5.426;2023-09-18T13:48:05;5.97;;;1.92;;
55762;SDS011;42162;51.958;5.426;2023-09-18T13:50:33;3.88;;;1.70;;
55762;SDS011;42162;51.958;5.426;2023-09-18T13:53:01;4.00;;;1.50;;
55762;SDS011;42162;51.958;5.426;2023-09-18T13:55:31;5.03;;;1.77;;
55762;SDS011;42162;51.958;5.426;2023-09-18T13:57:58;4.85;;;1.55;;
55762;SDS011;42162;51.958;5.426;2023-09-18T14:00:26;3.90;;;1.40;;
55762;SDS011;42162;51.958;5.426;2023-09-18T14:02:53;3.55;;;1.40;;
55762;SDS011;42162;51.958;5.426;2023-09-18T14:05:21;3.03;;;1.42;;
55762;SDS011;42162;51.958;5.426;2023-09-18T14:07:48;3.72;;;1.75;;
55762;SDS011;42162;51.958;5.426;2023-09-18T14:10:15;5.30;;;1.65;;
55762;SDS011;42162;51.958;5.426;2023-09-18T14:12:45;6.13;;;1.42;;
55762;SDS011;42162;51.958;5.426;2023-09-18T14:15:12;5.43;;;1.48;;
55762;SDS011;42162;51.958;5.426;2023-09-18T14:17:39;4.93;;;1.70;;
55762;SDS011;42162;51.958;5.426;2023-09-18T14:20:06;3.88;;;1.40;;
55762;SDS011;42162;51.958;5.426;2023-09-18T14:22:34;2.38;;;1.25;;
55762;SDS011;42162;51.958;5.426;2023-09-18T14:25:02;3.75;;;2.00;;
55762;SDS011;42162;51.958;5.426;2023-09-18T14:27:33;3.70;;;1.40;;
55762;SDS011;42162;51.958;5.426;2023-09-18T14:30:04;8.00;;;1.60;;
55762;SDS011;42162;51.958;5.426;2023-09-18T14:35:04;5.07;;;1.40;;
55762;SDS011;42162;51.958;5.426;2023-09-18T14:37:31;3.83;;;1.63;;
55762;SDS011;42162;51.958;5.426;2023-09-18T14:39:59;5.85;;;1.45;;
55762;SDS011;42162;51.958;5.426;2023-09-18T14:42:26;2.83;;;1.50;;
55762;SDS011;42162;51.958;5.426;2023-09-18T14:44:53;5.97;;;1.38;;
55762;SDS011;42162;51.958;5.426;2023-09-18T14:47:20;5.55;;;1.80;;
55762;SDS011;42162;51.958;5.426;2023-09-18T14:49:50;2.45;;;1.30;;
55762;SDS011;42162;51.958;5.426;2023-09-18T14:52:17;4.80;;;1.33;;
55762;SDS011;42162;51.958;5.426;2023-09-18T14:54:45;4.95;;;1.30;;
55762;SDS011;42162;51.958;5.426;2023-09-18T14:57:13;5.38;;;1.25;;
55762;SDS011;42162;51.958;5.426;2023-09-18T14:59:40;3.03;;;1.23;;
55762;SDS011;42162;51.958;5.426;2023-09-18T15:02:09;3.03;;;1.67;;
55762;SDS011;42162;51.958;5.426;2023-09-18T15:04:36;3.88;;;1.60;;
55762;SDS011;42162;51.958;5.426;2023-09-18T15:07:03;9.73;;;2.40;;
55762;SDS011;42162;51.958;5.426;2023-09-18T15:09:30;7.47;;;1.85;;
55762;SDS011;42162;51.958;5.426;2023-09-18T15:11:57;7.70;;;1.73;;
55762;SDS011;42162;51.958;5.426;2023-09-18T15:14:24;8.73;;;1.83;;